Terminal Aerodrome Forecast
Issued by NWS

Home | Current Version | Previous Version | Text Only | Print | Product List | Glossary On
Versions: 1 2 3 4 5 6 7 8 9 10 11 12
000
FTUS46 KSTO 281700 RRA
TAFRDD
TAF
KRDD 281741Z 2818/2918 VRB04KT P6SM FEW200
     FM282200 18010KT P6SM BKN200
     FM290400 VRB02KT P6SM BKN150=

USA.gov is the U.S. government's official web portal to all federal, state and local government web resources and services.